Time;durP1;ratioP1;P1;durP2;ratioP2;P2;SDS_P1;SDS_P2;PMS_P1;PMS_P2;Temp;Humidity;BMP_temperature;BMP_pressure;BME280_temperature;BME280_humidity;BME280_pressure;Samples;Min_cycle;Max_cycle;Signal;HPM_P1;HPM_P2
2021/03/04 00:01:11;;;;;;;31.27;19.57;;;;;;;;;;5050294;28;20213;-50
2021/03/04 00:03:38;;;;;;;38.53;18.97;;;;;;;;;;5049653;28;20463;-48
2021/03/04 00:06:16;;;;;;;34.93;17.47;;;;;;;;;;5051444;28;20436;-51
2021/03/04 00:08:43;;;;;;;33.30;18.15;;;;;;;;;;5054244;28;20496;-53
2021/03/04 00:11:09;;;;;;;32.05;18.42;;;;;;;;;;5054756;28;20217;-49
2021/03/04 00:13:52;;;;;;;27.00;17.92;;;;;;;;;;5053437;28;20221;-45
2021/03/04 00:16:19;;;;;;;41.47;19.08;;;;;;;;;;5055445;28;20205;-50
2021/03/04 00:18:46;;;;;;;36.03;17.33;;;;;;;;;;5055488;28;20204;-49
2021/03/04 00:21:19;;;;;;;34.05;19.70;;;;;;;;;;5055565;28;20235;-51
2021/03/04 00:23:46;;;;;;;34.33;19.05;;;;;;;;;;5046965;28;20217;-48
2021/03/04 00:26:13;;;;;;;34.38;18.92;;;;;;;;;;5038528;28;20213;-49
2021/03/04 00:28:40;;;;;;;40.97;18.38;;;;;;;;;;5044860;27;20266;-52
2021/03/04 00:31:07;;;;;;;33.50;16.97;;;;;;;;;;5055785;28;20254;-55
2021/03/04 00:33:35;;;;;;;31.93;18.77;;;;;;;;;;5055274;28;20497;-56
2021/03/04 00:36:19;;;;;;;29.88;17.88;;;;;;;;;;5054928;28;20452;-55
2021/03/04 00:38:46;;;;;;;38.77;20.63;;;;;;;;;;5055052;28;20336;-52
2021/03/04 00:41:13;;;;;;;39.53;18.13;;;;;;;;;;5055239;28;20493;-51
2021/03/04 00:43:49;;;;;;;35.08;20.33;;;;;;;;;;5054344;28;20447;-50
2021/03/04 00:46:16;;;;;;;37.90;18.00;;;;;;;;;;5055667;27;20213;-49
2021/03/04 00:48:43;;;;;;;33.08;17.00;;;;;;;;;;5055525;28;20245;-51
2021/03/04 00:54:13;;;;;;;35.05;19.20;;;;;;;;;;5041511;28;20215;-47
2021/03/04 00:56:40;;;;;;;30.27;18.95;;;;;;;;;;5083066;28;20208;-45
2021/03/04 00:59:11;;;;;;;26.75;17.75;;;;;;;;;;5122970;28;20188;-52
2021/03/04 01:01:38;;;;;;;41.00;19.42;;;;;;;;;;5054810;28;20193;-49
2021/03/04 01:04:06;;;;;;;30.85;19.48;;;;;;;;;;5042754;28;20206;-49
2021/03/04 01:06:50;;;;;;;32.67;18.08;;;;;;;;;;5038678;28;20215;-54
2021/03/04 01:09:17;;;;;;;28.80;16.90;;;;;;;;;;5054022;28;20260;-51
2021/03/04 01:11:44;;;;;;;31.25;18.65;;;;;;;;;;5054459;28;20240;-56
2021/03/04 01:14:12;;;;;;;28.95;16.92;;;;;;;;;;5054985;28;20209;-47
2021/03/04 01:16:39;;;;;;;39.05;17.33;;;;;;;;;;5054506;28;20236;-49
2021/03/04 01:19:07;;;;;;;37.55;19.23;;;;;;;;;;5031942;28;20195;-50
2021/03/04 01:21:41;;;;;;;35.20;18.83;;;;;;;;;;5052282;28;20233;-54
2021/03/04 01:24:09;;;;;;;34.67;18.67;;;;;;;;;;5043213;28;20212;-53
2021/03/04 01:26:36;;;;;;;34.08;17.60;;;;;;;;;;5054094;28;20451;-48
2021/03/04 01:29:03;;;;;;;34.08;17.15;;;;;;;;;;5052615;28;20205;-49
2021/03/04 01:31:30;;;;;;;35.25;18.23;;;;;;;;;;5053805;28;20201;-47
2021/03/04 01:34:25;;;;;;;29.45;17.00;;;;;;;;;;5054489;28;20224;-56
2021/03/04 01:36:53;;;;;;;25.83;17.00;;;;;;;;;;5054355;28;20194;-51
2021/03/04 01:39:20;;;;;;;29.53;18.80;;;;;;;;;;5054788;28;20199;-53
2021/03/04 01:41:54;;;;;;;28.38;16.50;;;;;;;;;;5054492;28;20464;-52
2021/03/04 01:44:21;;;;;;;29.60;17.08;;;;;;;;;;5035161;28;20206;-49
2021/03/04 01:46:47;;;;;;;29.77;17.73;;;;;;;;;;5034836;28;20206;-53
2021/03/04 01:49:20;;;;;;;33.88;17.08;;;;;;;;;;5035068;28;20188;-50
2021/03/04 01:51:46;;;;;;;29.38;17.60;;;;;;;;;;5034547;28;20198;-51
2021/03/04 01:54:14;;;;;;;27.10;17.13;;;;;;;;;;5048187;28;20203;-51
2021/03/04 01:59:45;;;;;;;27.10;17.30;;;;;;;;;;5054540;28;20197;-51
2021/03/04 02:02:13;;;;;;;29.25;18.13;;;;;;;;;;5054451;28;20206;-52
2021/03/04 02:04:54;;;;;;;26.67;16.80;;;;;;;;;;5055030;28;20197;-54
2021/03/04 02:07:29;;;;;;;34.03;17.85;;;;;;;;;;5054317;28;20217;-47
2021/03/04 02:09:59;;;;;;;35.80;17.63;;;;;;;;;;5054717;27;20217;-53
2021/03/04 02:12:31;;;;;;;39.05;19.08;;;;;;;;;;5054059;28;20236;-47
2021/03/04 02:15:05;;;;;;;27.48;17.42;;;;;;;;;;5054113;28;20209;-52
2021/03/04 02:17:35;;;;;;;41.10;17.88;;;;;;;;;;5053896;28;20189;-50
2021/03/04 02:20:04;;;;;;;32.30;16.27;;;;;;;;;;5053992;28;20202;-53
2021/03/04 02:23:02;;;;;;;32.75;18.50;;;;;;;;;;5054520;28;20197;-49
2021/03/04 02:28:34;;;;;;;26.55;17.73;;;;;;;;;;5054845;28;20192;-48
2021/03/04 02:45:45;;;;;;;33.40;20.23;;;;;;;;;;5036526;28;20240;-48
2021/03/04 02:48:12;;;;;;;35.63;17.90;;;;;;;;;;5061172;28;20213;-51
2021/03/04 02:50:41;;;;;;;39.47;18.95;;;;;;;;;;5052890;28;20216;-51
2021/03/04 02:53:08;;;;;;;29.05;18.88;;;;;;;;;;5083570;28;20210;-50
2021/03/04 02:55:35;;;;;;;31.20;15.82;;;;;;;;;;5137853;28;20223;-52
2021/03/04 02:58:26;;;;;;;37.30;18.52;;;;;;;;;;5137293;28;20188;-54
2021/03/04 03:00:54;;;;;;;25.92;18.95;;;;;;;;;;5067369;28;20196;-56
2021/03/04 03:03:21;;;;;;;34.88;19.77;;;;;;;;;;5033497;28;20201;-47
2021/03/04 03:06:02;;;;;;;32.00;17.97;;;;;;;;;;5033920;28;20239;-54
2021/03/04 03:08:29;;;;;;;33.60;18.90;;;;;;;;;;5041491;28;20508;-50
2021/03/04 03:10:58;;;;;;;28.38;19.17;;;;;;;;;;5136712;28;20431;-54
2021/03/04 03:13:43;;;;;;;29.25;18.63;;;;;;;;;;5099139;28;20332;-51
2021/03/04 03:16:11;;;;;;;28.67;18.55;;;;;;;;;;5028181;28;20214;-55
2021/03/04 03:18:38;;;;;;;30.33;18.48;;;;;;;;;;5019859;28;20274;-50
2021/03/04 03:21:27;;;;;;;33.58;20.25;;;;;;;;;;5014300;28;20190;-51
2021/03/04 03:23:54;;;;;;;30.67;18.25;;;;;;;;;;5039531;28;20215;-51
2021/03/04 03:26:20;;;;;;;35.55;20.48;;;;;;;;;;5052867;28;20201;-49
2021/03/04 03:28:47;;;;;;;30.88;20.02;;;;;;;;;;5053093;28;20217;-53
2021/03/04 03:31:16;;;;;;;30.77;19.52;;;;;;;;;;5051685;28;20204;-54
2021/03/04 03:34:07;;;;;;;31.45;19.65;;;;;;;;;;5051980;28;20240;-49
2021/03/04 03:36:35;;;;;;;30.27;18.70;;;;;;;;;;5052920;28;20211;-54
2021/03/04 03:39:03;;;;;;;35.55;19.20;;;;;;;;;;5052795;28;20360;-52
2021/03/04 03:41:43;;;;;;;36.92;19.27;;;;;;;;;;5052006;28;20220;-48
2021/03/04 03:44:10;;;;;;;33.50;20.15;;;;;;;;;;5054099;28;20204;-51
2021/03/04 03:46:39;;;;;;;41.03;22.77;;;;;;;;;;5052664;28;20213;-48
2021/03/04 03:49:40;;;;;;;34.67;21.33;;;;;;;;;;5095787;28;20197;-46
2021/03/04 03:52:07;;;;;;;36.45;20.42;;;;;;;;;;5050727;28;20362;-57
2021/03/04 03:54:34;;;;;;;31.13;19.23;;;;;;;;;;5043036;28;20198;-53
2021/03/04 03:57:03;;;;;;;34.63;21.60;;;;;;;;;;5052792;28;20451;-55
2021/03/04 03:59:30;;;;;;;39.33;20.95;;;;;;;;;;5052150;28;20211;-53
2021/03/04 04:01:58;;;;;;;35.95;21.10;;;;;;;;;;5052452;28;20273;-53
2021/03/04 04:04:24;;;;;;;34.78;19.98;;;;;;;;;;5052058;28;20209;-48
2021/03/04 04:06:51;;;;;;;39.13;21.13;;;;;;;;;;5052932;28;20196;-47
2021/03/04 04:09:19;;;;;;;32.75;20.05;;;;;;;;;;5052444;28;20212;-52
2021/03/04 04:11:45;;;;;;;35.17;20.38;;;;;;;;;;5052552;28;20199;-47
2021/03/04 04:14:12;;;;;;;44.33;20.67;;;;;;;;;;5053644;28;20241;-49
2021/03/04 04:16:46;;;;;;;35.80;21.00;;;;;;;;;;5052549;28;20208;-48
2021/03/04 04:19:14;;;;;;;38.45;22.17;;;;;;;;;;5052212;28;20236;-54
2021/03/04 04:21:41;;;;;;;38.97;22.55;;;;;;;;;;5052842;28;20225;-55
2021/03/04 04:24:09;;;;;;;32.83;22.20;;;;;;;;;;5033591;28;20238;-53
2021/03/04 04:26:36;;;;;;;36.42;22.42;;;;;;;;;;5037653;28;20192;-50
2021/03/04 04:29:03;;;;;;;35.03;23.40;;;;;;;;;;5051843;28;20259;-49
2021/03/04 04:31:30;;;;;;;40.28;21.63;;;;;;;;;;5051796;28;20227;-51
2021/03/04 04:33:56;;;;;;;37.47;21.95;;;;;;;;;;5052175;28;20542;-52
2021/03/04 04:36:24;;;;;;;42.85;22.85;;;;;;;;;;5051992;28;20201;-48
2021/03/04 04:39:09;;;;;;;34.15;21.00;;;;;;;;;;5052095;28;20220;-48
2021/03/04 04:41:36;;;;;;;38.63;21.23;;;;;;;;;;5043933;28;20200;-51
2021/03/04 04:44:03;;;;;;;41.35;21.77;;;;;;;;;;5041349;28;20201;-50
2021/03/04 04:46:35;;;;;;;35.22;20.98;;;;;;;;;;5048211;28;20200;-51
2021/03/04 04:49:01;;;;;;;45.10;29.15;;;;;;;;;;5138113;28;20206;-54
2021/03/04 04:51:32;;;;;;;39.38;24.20;;;;;;;;;;5087784;28;20219;-50
2021/03/04 04:54:01;;;;;;;34.92;22.33;;;;;;;;;;5051292;28;20247;-48
2021/03/04 04:56:28;;;;;;;36.72;20.83;;;;;;;;;;5045697;28;20224;-55
2021/03/04 04:58:55;;;;;;;36.60;20.00;;;;;;;;;;5105361;27;20224;-54
2021/03/04 05:01:37;;;;;;;36.58;21.90;;;;;;;;;;5120608;27;20200;-53
2021/03/04 05:04:05;;;;;;;35.25;20.95;;;;;;;;;;5053656;28;20203;-52
2021/03/04 05:06:33;;;;;;;30.08;18.80;;;;;;;;;;5048941;28;20192;-56
2021/03/04 05:09:02;;;;;;;33.72;21.15;;;;;;;;;;5043171;28;20216;-54
2021/03/04 05:11:29;;;;;;;34.92;21.48;;;;;;;;;;5043655;28;20262;-53
2021/03/04 05:13:56;;;;;;;31.30;20.50;;;;;;;;;;5054347;28;20237;-53
2021/03/04 05:16:33;;;;;;;39.00;21.65;;;;;;;;;;5054149;28;20193;-51
2021/03/04 05:19:00;;;;;;;46.07;22.40;;;;;;;;;;5054270;28;20205;-52
2021/03/04 05:21:27;;;;;;;41.40;23.27;;;;;;;;;;5054389;28;20467;-51
2021/03/04 05:24:09;;;;;;;35.13;23.27;;;;;;;;;;5050280;28;20441;-57
2021/03/04 05:26:36;;;;;;;39.67;21.85;;;;;;;;;;5053598;28;20447;-52
2021/03/04 05:29:04;;;;;;;37.00;21.75;;;;;;;;;;5054214;28;20213;-56
2021/03/04 05:31:37;;;;;;;40.63;21.83;;;;;;;;;;5054900;28;20215;-51
2021/03/04 05:34:04;;;;;;;36.67;21.83;;;;;;;;;;5054646;28;20244;-52
2021/03/04 05:36:30;;;;;;;40.30;21.43;;;;;;;;;;5054094;28;20215;-54
2021/03/04 05:39:03;;;;;;;31.30;21.10;;;;;;;;;;5058971;28;20464;-50
2021/03/04 05:41:31;;;;;;;40.03;21.38;;;;;;;;;;5072240;28;20439;-52
2021/03/04 05:43:59;;;;;;;43.28;24.75;;;;;;;;;;5056673;28;20201;-50
2021/03/04 05:46:29;;;;;;;37.83;22.57;;;;;;;;;;5053986;28;20186;-51
2021/03/04 05:48:57;;;;;;;37.88;23.40;;;;;;;;;;5054534;28;20526;-55
2021/03/04 05:51:26;;;;;;;37.78;21.95;;;;;;;;;;5053218;28;20240;-51
2021/03/04 05:54:25;;;;;;;33.45;21.42;;;;;;;;;;5053607;28;20228;-55
2021/03/04 05:56:52;;;;;;;38.92;22.13;;;;;;;;;;5045105;28;20215;-54
2021/03/04 05:59:20;;;;;;;37.90;21.58;;;;;;;;;;5045269;28;20215;-58
2021/03/04 06:01:52;;;;;;;42.08;24.13;;;;;;;;;;5053526;28;20216;-55
2021/03/04 06:04:19;;;;;;;40.15;25.17;;;;;;;;;;5045672;28;20202;-52
2021/03/04 06:06:46;;;;;;;46.60;24.83;;;;;;;;;;5042684;28;20208;-55
2021/03/04 06:09:21;;;;;;;53.08;26.40;;;;;;;;;;5053345;28;20289;-56
2021/03/04 06:11:47;;;;;;;41.17;25.70;;;;;;;;;;5054129;28;20210;-48
2021/03/04 06:14:18;;;;;;;43.80;25.25;;;;;;;;;;5069502;28;20229;-51
2021/03/04 06:16:47;;;;;;;43.30;25.23;;;;;;;;;;5059362;28;20213;-55
2021/03/04 06:19:21;;;;;;;49.03;24.63;;;;;;;;;;5058955;28;20482;-50
2021/03/04 06:21:57;;;;;;;34.47;23.10;;;;;;;;;;5051631;28;20219;-53
2021/03/04 06:24:41;;;;;;;41.10;23.73;;;;;;;;;;5050891;28;20505;-52
2021/03/04 06:27:08;;;;;;;46.90;25.40;;;;;;;;;;5057113;28;20220;-50
2021/03/04 06:29:36;;;;;;;39.58;24.30;;;;;;;;;;5053019;28;20211;-49
2021/03/04 06:32:27;;;;;;;35.78;25.10;;;;;;;;;;5052298;28;20240;-57
2021/03/04 06:35:02;;;;;;;49.25;27.20;;;;;;;;;;5090513;28;20238;-53
2021/03/04 06:37:29;;;;;;;42.92;26.08;;;;;;;;;;5115354;28;20224;-54
2021/03/04 06:40:13;;;;;;;48.33;27.13;;;;;;;;;;5099321;28;20194;-52
2021/03/04 06:42:40;;;;;;;46.03;26.48;;;;;;;;;;5115239;28;20281;-55
2021/03/04 06:45:09;;;;;;;50.65;28.83;;;;;;;;;;5115692;28;20211;-56
2021/03/04 06:48:04;;;;;;;45.30;28.98;;;;;;;;;;5114953;28;20225;-54
2021/03/04 06:50:34;;;;;;;52.33;28.30;;;;;;;;;;5115157;28;20263;-55
2021/03/04 06:53:21;;;;;;;51.65;28.25;;;;;;;;;;5114809;28;20221;-55
2021/03/04 06:55:49;;;;;;;47.70;28.52;;;;;;;;;;5114936;28;20210;-54
2021/03/04 06:58:31;;;;;;;54.53;30.85;;;;;;;;;;5114171;28;20267;-56
2021/03/04 07:01:08;;;;;;;52.55;29.65;;;;;;;;;;5115220;28;20283;-51
2021/03/04 07:03:36;;;;;;;52.08;31.10;;;;;;;;;;5113222;28;20202;-55
2021/03/04 07:06:21;;;;;;;53.35;33.88;;;;;;;;;;5115118;28;20413;-49
2021/03/04 07:08:49;;;;;;;61.90;36.78;;;;;;;;;;5109045;28;20195;-56
2021/03/04 07:11:17;;;;;;;66.13;40.28;;;;;;;;;;5095214;28;20306;-47
2021/03/04 07:13:46;;;;;;;78.05;44.40;;;;;;;;;;5107390;28;20256;-49
2021/03/04 07:16:17;;;;;;;95.30;49.03;;;;;;;;;;5114382;28;20199;-55
2021/03/04 07:18:45;;;;;;;92.78;56.38;;;;;;;;;;5115038;28;20211;-51
2021/03/04 07:21:41;;;;;;;81.78;53.22;;;;;;;;;;5114864;28;20253;-54
2021/03/04 07:24:08;;;;;;;99.93;58.00;;;;;;;;;;5113149;28;20205;-49
2021/03/04 07:26:37;;;;;;;109.43;61.67;;;;;;;;;;5114087;28;20189;-49
2021/03/04 07:29:27;;;;;;;100.32;58.00;;;;;;;;;;5113556;28;20204;-51
2021/03/04 07:31:55;;;;;;;105.75;60.70;;;;;;;;;;5094414;28;20216;-46
2021/03/04 07:34:22;;;;;;;113.15;60.35;;;;;;;;;;5103653;28;20247;-51
2021/03/04 07:36:50;;;;;;;97.28;54.35;;;;;;;;;;5114742;28;20232;-57
2021/03/04 07:39:17;;;;;;;87.47;50.83;;;;;;;;;;5122374;28;20191;-46
2021/03/04 07:41:51;;;;;;;86.43;46.25;;;;;;;;;;5134588;28;20195;-56
2021/03/04 07:44:24;;;;;;;68.07;42.38;;;;;;;;;;5134449;28;20273;-51
2021/03/04 07:46:53;;;;;;;79.07;46.08;;;;;;;;;;5135335;28;20278;-52
2021/03/04 07:49:30;;;;;;;70.90;42.00;;;;;;;;;;5149776;28;20203;-51
2021/03/04 07:52:00;;;;;;;68.97;39.78;;;;;;;;;;5138477;28;20231;-51
2021/03/04 07:54:28;;;;;;;68.18;41.13;;;;;;;;;;5136352;28;20276;-48
2021/03/04 07:57:05;;;;;;;68.90;43.90;;;;;;;;;;5147441;27;20362;-47
2021/03/04 07:59:33;;;;;;;86.60;43.88;;;;;;;;;;5135383;28;20198;-47
2021/03/04 08:02:00;;;;;;;69.20;42.55;;;;;;;;;;5127273;28;20239;-53
2021/03/04 08:04:28;;;;;;;57.08;37.72;;;;;;;;;;5134412;27;20205;-49
2021/03/04 08:07:06;;;;;;;60.47;39.45;;;;;;;;;;5134643;28;20215;-55
2021/03/04 08:09:34;;;;;;;70.82;44.08;;;;;;;;;;5130497;28;20219;-54
2021/03/04 08:12:08;;;;;;;63.25;41.17;;;;;;;;;;5134468;28;20214;-53
2021/03/04 08:14:35;;;;;;;66.65;39.72;;;;;;;;;;5134373;28;20229;-50
2021/03/04 08:17:05;;;;;;;60.40;38.55;;;;;;;;;;5134950;27;20291;-54
2021/03/04 08:19:32;;;;;;;61.10;38.25;;;;;;;;;;5134795;28;20210;-54
2021/03/04 08:22:04;;;;;;;55.03;38.53;;;;;;;;;;5148661;28;20201;-51
2021/03/04 08:24:32;;;;;;;65.75;41.50;;;;;;;;;;5145434;28;20206;-46
2021/03/04 08:26:59;;;;;;;62.60;42.85;;;;;;;;;;5134618;28;20296;-56
2021/03/04 08:30:00;;;;;;;57.95;37.83;;;;;;;;;;5138201;28;20209;-51
2021/03/04 08:32:27;;;;;;;61.60;38.65;;;;;;;;;;5138242;28;20206;-49
2021/03/04 08:34:54;;;;;;;58.85;39.45;;;;;;;;;;5136627;28;20243;-50
2021/03/04 08:37:29;;;;;;;55.75;37.80;;;;;;;;;;5138581;28;20216;-55
2021/03/04 08:40:01;;;;;;;57.42;37.90;;;;;;;;;;5135195;28;20236;-49
2021/03/04 08:42:27;;;;;;;59.45;39.88;;;;;;;;;;5138297;28;20256;-45
2021/03/04 08:47:58;;;;;;;64.70;40.55;;;;;;;;;;5130979;28;20239;-57
2021/03/04 08:50:43;;;;;;;63.17;42.03;;;;;;;;;;5138210;27;20194;-56
2021/03/04 08:53:27;;;;;;;62.60;42.95;;;;;;;;;;5138432;27;20485;-53
2021/03/04 08:55:54;;;;;;;66.70;45.08;;;;;;;;;;5091938;28;20781;-50
2021/03/04 08:58:22;;;;;;;67.87;43.87;;;;;;;;;;5074383;27;20201;-57
2021/03/04 09:00:55;;;;;;;66.83;42.90;;;;;;;;;;5073976;27;20529;-54
2021/03/04 09:03:27;;;;;;;67.83;44.00;;;;;;;;;;5074208;28;20456;-45
2021/03/04 09:06:03;;;;;;;66.23;42.20;;;;;;;;;;5074345;28;20634;-49
2021/03/04 09:08:44;;;;;;;69.30;42.87;;;;;;;;;;5073743;28;20473;-53
2021/03/04 09:11:28;;;;;;;67.10;42.50;;;;;;;;;;5074388;28;20454;-53
2021/03/04 09:14:02;;;;;;;63.47;43.00;;;;;;;;;;5074084;28;20486;-60
2021/03/04 09:16:31;;;;;;;69.43;44.40;;;;;;;;;;5054132;28;20456;-52
2021/03/04 09:18:58;;;;;;;64.67;44.07;;;;;;;;;;5065561;27;20456;-56
2021/03/04 09:24:32;;;;;;;69.20;43.60;;;;;;;;;;5053727;28;20185;-50
2021/03/04 09:26:59;;;;;;;64.53;42.57;;;;;;;;;;5054124;28;20459;-52
2021/03/04 09:29:27;;;;;;;59.03;38.40;;;;;;;;;;5055351;28;20503;-53
2021/03/04 09:31:55;;;;;;;51.67;36.73;;;;;;;;;;5052694;28;20453;-51
2021/03/04 09:34:30;;;;;;;54.33;37.50;;;;;;;;;;5052579;28;20486;-47
2021/03/04 09:37:04;;;;;;;66.73;39.17;;;;;;;;;;5052748;28;20490;-48
2021/03/04 09:39:38;;;;;;;65.50;38.10;;;;;;;;;;5052010;28;20441;-51
2021/03/04 09:42:16;;;;;;;61.30;37.30;;;;;;;;;;5052893;28;20456;-53
2021/03/04 09:45:01;;;;;;;61.97;36.93;;;;;;;;;;5052994;28;20620;-51
2021/03/04 09:47:30;;;;;;;63.63;34.50;;;;;;;;;;5053260;28;20441;-54
2021/03/04 09:49:58;;;;;;;55.50;32.37;;;;;;;;;;5052330;28;21113;-52
2021/03/04 09:52:27;;;;;;;49.37;31.90;;;;;;;;;;5052708;28;20468;-51
2021/03/04 09:55:07;;;;;;;55.23;31.87;;;;;;;;;;5056243;28;20509;-57
2021/03/04 09:57:34;;;;;;;46.40;27.20;;;;;;;;;;5052248;28;20468;-51
2021/03/04 10:00:35;;;;;;;40.20;25.70;;;;;;;;;;5052423;28;20442;-49
2021/03/04 10:03:08;;;;;;;47.40;26.73;;;;;;;;;;5089470;27;20495;-57
2021/03/04 10:05:35;;;;;;;34.80;24.40;;;;;;;;;;5117759;28;20527;-50
2021/03/04 10:08:24;;;;;;;35.27;23.63;;;;;;;;;;5135702;28;20447;-50
2021/03/04 10:10:53;;;;;;;41.80;26.97;;;;;;;;;;5136274;27;20714;-52
2021/03/04 10:13:29;;;;;;;41.50;25.60;;;;;;;;;;5129446;28;20489;-49
2021/03/04 10:15:58;;;;;;;38.50;26.00;;;;;;;;;;5124066;27;20456;-51
2021/03/04 10:18:25;;;;;;;31.93;23.53;;;;;;;;;;5146854;27;20468;-51
2021/03/04 10:21:08;;;;;;;29.97;21.23;;;;;;;;;;5135924;28;20442;-53
2021/03/04 10:23:35;;;;;;;24.40;17.60;;;;;;;;;;5136031;27;20874;-59
2021/03/04 10:26:04;;;;;;;27.60;19.63;;;;;;;;;;5134961;28;20540;-51
2021/03/04 10:28:37;;;;;;;46.00;29.70;;;;;;;;;;5136293;28;20491;-47
2021/03/04 10:31:04;;;;;;;50.70;31.17;;;;;;;;;;5134280;28;20464;-52
2021/03/04 10:33:31;;;;;;;54.10;32.40;;;;;;;;;;5145831;27;20497;-55
2021/03/04 10:35:58;;;;;;;58.53;37.03;;;;;;;;;;5155535;27;20590;-52
2021/03/04 10:38:25;;;;;;;58.57;36.57;;;;;;;;;;5135887;27;20516;-53
2021/03/04 10:41:02;;;;;;;61.50;38.67;;;;;;;;;;5129522;28;20488;-50
2021/03/04 10:43:31;;;;;;;66.83;41.43;;;;;;;;;;5114812;28;20691;-53
2021/03/04 10:45:58;;;;;;;67.20;38.70;;;;;;;;;;5080511;27;20574;-50
2021/03/04 10:48:24;;;;;;;60.47;39.07;;;;;;;;;;5071873;28;20468;-58
2021/03/04 10:50:51;;;;;;;74.13;43.07;;;;;;;;;;5070494;28;20448;-49
2021/03/04 10:53:25;;;;;;;64.40;40.13;;;;;;;;;;5129385;27;20490;-52
2021/03/04 10:56:08;;;;;;;65.93;39.53;;;;;;;;;;5123074;27;20504;-58
2021/03/04 10:58:39;;;;;;;70.43;40.27;;;;;;;;;;5071329;28;20518;-50
2021/03/04 11:01:08;;;;;;;80.53;45.60;;;;;;;;;;5071635;28;20476;-53
2021/03/04 11:03:36;;;;;;;70.00;42.80;;;;;;;;;;5071170;28;20451;-53
2021/03/04 11:06:03;;;;;;;63.90;40.30;;;;;;;;;;5070190;27;20481;-54
2021/03/04 11:08:51;;;;;;;63.37;38.93;;;;;;;;;;5070037;28;20497;-55
2021/03/04 11:11:19;;;;;;;63.83;39.00;;;;;;;;;;5067480;28;20448;-52
2021/03/04 11:13:47;;;;;;;59.73;38.17;;;;;;;;;;5069160;28;20475;-54
2021/03/04 11:16:14;;;;;;;61.70;36.07;;;;;;;;;;5050334;28;20458;-53
2021/03/04 11:18:41;;;;;;;63.83;36.87;;;;;;;;;;5050927;28;20462;-50
2021/03/04 11:21:07;;;;;;;62.47;35.17;;;;;;;;;;5064881;28;20455;-49
2021/03/04 11:23:48;;;;;;;61.00;35.00;;;;;;;;;;5066662;28;20463;-54
2021/03/04 11:26:15;;;;;;;56.03;35.20;;;;;;;;;;5070606;28;20474;-48
2021/03/04 11:28:42;;;;;;;61.73;34.77;;;;;;;;;;5070652;28;20454;-59
2021/03/04 11:31:30;;;;;;;54.92;34.72;;;;;;;;;;5069688;28;20484;-52
2021/03/04 11:33:57;;;;;;;58.75;33.42;;;;;;;;;;5072612;28;20231;-55
2021/03/04 11:36:24;;;;;;;68.95;38.00;;;;;;;;;;5070455;28;20212;-51
2021/03/04 11:39:05;;;;;;;74.35;39.53;;;;;;;;;;5070815;28;20201;-53
2021/03/04 11:41:33;;;;;;;71.38;38.95;;;;;;;;;;5069174;28;20208;-50
2021/03/04 11:44:02;;;;;;;69.70;38.67;;;;;;;;;;5065367;28;20290;-47
2021/03/04 11:46:44;;;;;;;80.15;39.13;;;;;;;;;;5060805;27;20273;-48
2021/03/04 11:49:11;;;;;;;69.75;38.45;;;;;;;;;;5077765;28;20268;-55
2021/03/04 11:51:38;;;;;;;63.75;34.60;;;;;;;;;;5070512;28;20221;-54
2021/03/04 11:54:32;;;;;;;61.00;35.57;;;;;;;;;;5069702;28;20235;-57
2021/03/04 11:56:59;;;;;;;62.55;34.70;;;;;;;;;;5067148;28;20927;-51
2021/03/04 11:59:26;;;;;;;57.70;34.30;;;;;;;;;;5082352;28;20232;-55
2021/03/04 12:01:58;;;;;;;54.33;31.60;;;;;;;;;;5073520;28;20479;-56
2021/03/04 12:04:26;;;;;;;56.53;32.55;;;;;;;;;;5073587;28;20437;-52
2021/03/04 12:06:53;;;;;;;50.85;29.77;;;;;;;;;;5073725;28;20367;-56
2021/03/04 12:09:20;;;;;;;49.43;29.20;;;;;;;;;;5072501;28;20219;-56
2021/03/04 12:11:47;;;;;;;42.55;25.75;;;;;;;;;;5073653;28;20448;-52
2021/03/04 12:14:14;;;;;;;45.53;27.17;;;;;;;;;;5073286;28;20286;-53
2021/03/04 12:16:54;;;;;;;49.27;27.87;;;;;;;;;;5073446;28;20200;-48
2021/03/04 12:19:22;;;;;;;48.37;29.60;;;;;;;;;;5073265;28;20459;-52
2021/03/04 12:21:49;;;;;;;52.03;28.93;;;;;;;;;;5073004;28;20475;-53
2021/03/04 12:24:23;;;;;;;46.42;28.80;;;;;;;;;;5073387;28;20461;-48
2021/03/04 12:26:53;;;;;;;46.72;28.70;;;;;;;;;;5073196;28;20209;-53
2021/03/04 12:29:22;;;;;;;49.22;28.48;;;;;;;;;;5069658;28;20290;-51
2021/03/04 12:32:07;;;;;;;47.25;27.98;;;;;;;;;;5054060;28;20239;-54
2021/03/04 12:34:34;;;;;;;51.35;28.20;;;;;;;;;;5054271;28;20219;-55
2021/03/04 12:37:04;;;;;;;52.13;29.65;;;;;;;;;;5084944;28;20198;-51
2021/03/04 12:39:42;;;;;;;54.88;30.55;;;;;;;;;;5073446;28;20210;-48
2021/03/04 12:42:09;;;;;;;49.17;29.00;;;;;;;;;;5073077;28;20222;-52
2021/03/04 12:44:35;;;;;;;58.15;33.95;;;;;;;;;;5072252;28;20206;-46
2021/03/04 12:47:12;;;;;;;48.80;30.10;;;;;;;;;;5073520;28;20204;-51
2021/03/04 12:49:41;;;;;;;50.00;29.35;;;;;;;;;;5073036;28;20440;-57
2021/03/04 12:52:09;;;;;;;51.25;30.92;;;;;;;;;;5072203;28;20222;-43
2021/03/04 12:54:58;;;;;;;43.47;27.48;;;;;;;;;;5073340;28;20231;-46
2021/03/04 12:57:25;;;;;;;36.22;25.00;;;;;;;;;;5060509;28;20242;-58
2021/03/04 12:59:52;;;;;;;51.45;31.83;;;;;;;;;;5086719;28;20378;-49
2021/03/04 13:02:18;;;;;;;42.63;28.10;;;;;;;;;;5069302;28;20216;-47
2021/03/04 13:04:45;;;;;;;43.38;28.20;;;;;;;;;;5086315;28;20217;-50
2021/03/04 13:07:22;;;;;;;50.75;30.55;;;;;;;;;;5074400;28;20210;-50
2021/03/04 13:09:49;;;;;;;50.55;30.25;;;;;;;;;;5074583;28;20216;-52
2021/03/04 13:12:15;;;;;;;50.00;29.58;;;;;;;;;;5080751;27;20218;-49
2021/03/04 13:14:43;;;;;;;52.35;29.58;;;;;;;;;;5111822;27;20255;-54
2021/03/04 13:17:11;;;;;;;52.03;30.08;;;;;;;;;;5074638;28;20223;-50
2021/03/04 13:19:39;;;;;;;55.78;31.50;;;;;;;;;;5075236;28;20236;-49
2021/03/04 13:22:15;;;;;;;47.30;29.08;;;;;;;;;;5075027;28;20192;-51
2021/03/04 13:24:43;;;;;;;50.35;29.90;;;;;;;;;;5083662;28;20217;-48
2021/03/04 13:27:10;;;;;;;51.20;32.03;;;;;;;;;;5073117;28;20199;-51
2021/03/04 13:29:55;;;;;;;52.17;30.50;;;;;;;;;;5073287;28;20237;-48
2021/03/04 13:32:22;;;;;;;54.47;30.92;;;;;;;;;;5072744;28;20205;-51
2021/03/04 13:34:51;;;;;;;67.97;33.35;;;;;;;;;;5072999;28;20218;-48
2021/03/04 13:37:23;;;;;;;63.30;33.10;;;;;;;;;;5073708;28;20243;-50
2021/03/04 13:39:56;;;;;;;60.15;31.90;;;;;;;;;;5073808;28;20217;-48
2021/03/04 13:42:23;;;;;;;65.75;35.13;;;;;;;;;;5073647;28;20253;-49
2021/03/04 13:44:53;;;;;;;82.80;38.50;;;;;;;;;;5074205;28;20215;-48
2021/03/04 13:47:19;;;;;;;82.35;41.05;;;;;;;;;;5074386;28;20222;-51
2021/03/04 13:49:46;;;;;;;75.15;38.30;;;;;;;;;;5070883;28;20228;-48
2021/03/04 13:52:13;;;;;;;76.47;38.80;;;;;;;;;;5053820;28;20324;-53
2021/03/04 13:54:40;;;;;;;72.18;38.22;;;;;;;;;;5079173;27;20223;-54
2021/03/04 13:57:08;;;;;;;85.88;41.05;;;;;;;;;;5085486;27;20313;-54
2021/03/04 13:59:40;;;;;;;109.53;47.47;;;;;;;;;;5063775;28;20257;-50
2021/03/04 14:02:11;;;;;;;87.60;40.85;;;;;;;;;;5071426;28;20586;-53
2021/03/04 14:04:38;;;;;;;82.15;38.67;;;;;;;;;;5070347;28;20209;-52
2021/03/04 14:07:25;;;;;;;68.88;33.28;;;;;;;;;;5071243;28;20201;-51
2021/03/04 14:09:53;;;;;;;58.63;31.05;;;;;;;;;;5068821;28;20217;-53
2021/03/04 14:12:20;;;;;;;60.10;28.80;;;;;;;;;;5094582;27;20202;-48
2021/03/04 14:14:50;;;;;;;60.72;32.15;;;;;;;;;;5176673;27;20234;-51
2021/03/04 14:17:17;;;;;;;55.92;29.10;;;;;;;;;;5081447;27;20213;-51
2021/03/04 14:19:44;;;;;;;40.08;24.98;;;;;;;;;;5060623;28;20263;-52
2021/03/04 14:22:37;;;;;;;47.53;25.92;;;;;;;;;;5071251;28;20200;-49
2021/03/04 14:25:05;;;;;;;48.38;25.48;;;;;;;;;;5083010;28;20206;-49
2021/03/04 14:27:51;;;;;;;45.80;23.67;;;;;;;;;;5091457;28;20198;-54
2021/03/04 14:30:19;;;;;;;45.65;24.10;;;;;;;;;;5092109;28;20211;-47
2021/03/04 14:32:46;;;;;;;44.00;21.95;;;;;;;;;;5073234;28;20265;-46
2021/03/04 14:35:19;;;;;;;35.65;19.25;;;;;;;;;;5072968;28;20286;-52
2021/03/04 14:38:21;;;;;;;47.90;20.23;;;;;;;;;;5076278;28;20210;-48
2021/03/04 14:40:48;;;;;;;46.10;20.33;;;;;;;;;;5073309;27;20441;-53
2021/03/04 14:43:22;;;;;;;51.22;24.60;;;;;;;;;;5071929;28;20253;-50
2021/03/04 14:46:21;;;;;;;56.30;29.10;;;;;;;;;;5073009;28;20268;-53
2021/03/04 14:48:50;;;;;;;64.47;30.35;;;;;;;;;;5111049;27;20230;-55
2021/03/04 14:51:18;;;;;;;62.50;30.45;;;;;;;;;;5131162;27;20199;-54
2021/03/04 14:54:03;;;;;;;54.72;29.30;;;;;;;;;;5134358;28;20317;-49
2021/03/04 14:56:29;;;;;;;54.15;26.85;;;;;;;;;;5139481;27;20192;-46
2021/03/04 14:58:56;;;;;;;61.42;26.15;;;;;;;;;;5147482;27;20262;-54
2021/03/04 15:01:40;;;;;;;52.28;23.63;;;;;;;;;;5135515;28;20194;-52
2021/03/04 15:04:08;;;;;;;54.50;24.77;;;;;;;;;;5135689;28;20211;-58
2021/03/04 15:06:35;;;;;;;59.03;24.20;;;;;;;;;;5135624;28;20198;-52
2021/03/04 15:09:03;;;;;;;65.15;27.77;;;;;;;;;;5135585;27;20220;-56
2021/03/04 15:11:41;;;;;;;65.20;26.08;;;;;;;;;;5121110;28;20216;-52